sensor_id;sensor_type;location;lat;lon;timestamp;P1;durP1;ratioP1;P2;durP2;ratioP2
58685;SDS011;44465;53.206;-6.106;2023-03-13T00:01:16;14.40;;;3.22;;
58685;SDS011;44465;53.206;-6.106;2023-03-13T00:03:44;18.85;;;2.85;;
58685;SDS011;44465;53.206;-6.106;2023-03-13T00:06:10;17.23;;;3.35;;
58685;SDS011;44465;53.206;-6.106;2023-03-13T00:08:35;17.02;;;4.13;;
58685;SDS011;44465;53.206;-6.106;2023-03-13T00:11:01;15.07;;;3.22;;
58685;SDS011;44465;53.206;-6.106;2023-03-13T00:13:28;17.05;;;3.25;;
58685;SDS011;44465;53.206;-6.106;2023-03-13T00:16:00;13.80;;;3.65;;
58685;SDS011;44465;53.206;-6.106;2023-03-13T00:18:27;15.27;;;3.00;;
58685;SDS011;44465;53.206;-6.106;2023-03-13T00:20:57;15.02;;;3.22;;
58685;SDS011;44465;53.206;-6.106;2023-03-13T00:23:23;16.63;;;2.63;;
58685;SDS011;44465;53.206;-6.106;2023-03-13T00:25:54;15.38;;;3.10;;
58685;SDS011;44465;53.206;-6.106;2023-03-13T00:28:21;10.60;;;2.40;;
58685;SDS011;44465;53.206;-6.106;2023-03-13T00:30:47;11.40;;;2.45;;
58685;SDS011;44465;53.206;-6.106;2023-03-13T00:33:12;11.60;;;3.00;;
58685;SDS011;44465;53.206;-6.106;2023-03-13T00:35:37;15.80;;;2.72;;
58685;SDS011;44465;53.206;-6.106;2023-03-13T00:38:03;9.52;;;2.70;;
58685;SDS011;44465;53.206;-6.106;2023-03-13T00:40:28;15.65;;;3.13;;
58685;SDS011;44465;53.206;-6.106;2023-03-13T00:42:54;10.48;;;2.28;;
58685;SDS011;44465;53.206;-6.106;2023-03-13T00:45:20;7.07;;;2.38;;
58685;SDS011;44465;53.206;-6.106;2023-03-13T00:47:46;8.02;;;2.50;;
58685;SDS011;44465;53.206;-6.106;2023-03-13T00:50:14;10.15;;;2.20;;
58685;SDS011;44465;53.206;-6.106;2023-03-13T00:52:39;16.35;;;2.55;;
58685;SDS011;44465;53.206;-6.106;2023-03-13T00:55:06;8.98;;;2.17;;
58685;SDS011;44465;53.206;-6.106;2023-03-13T00:57:32;10.50;;;2.22;;
58685;SDS011;44465;53.206;-6.106;2023-03-13T01:00:02;15.30;;;3.10;;
58685;SDS011;44465;53.206;-6.106;2023-03-13T01:02:30;8.55;;;2.13;;
58685;SDS011;44465;53.206;-6.106;2023-03-13T01:04:56;5.03;;;1.50;;
58685;SDS011;44465;53.206;-6.106;2023-03-13T01:07:22;10.20;;;2.25;;
58685;SDS011;44465;53.206;-6.106;2023-03-13T01:09:48;7.35;;;1.70;;
58685;SDS011;44465;53.206;-6.106;2023-03-13T01:12:13;6.75;;;1.95;;
58685;SDS011;44465;53.206;-6.106;2023-03-13T01:14:39;7.65;;;1.65;;
58685;SDS011;44465;53.206;-6.106;2023-03-13T01:17:04;7.40;;;1.80;;
58685;SDS011;44465;53.206;-6.106;2023-03-13T01:19:30;6.95;;;1.40;;
58685;SDS011;44465;53.206;-6.106;2023-03-13T01:21:56;6.90;;;2.00;;
58685;SDS011;44465;53.206;-6.106;2023-03-13T01:24:23;8.98;;;2.17;;
58685;SDS011;44465;53.206;-6.106;2023-03-13T01:26:48;7.50;;;1.13;;
58685;SDS011;44465;53.206;-6.106;2023-03-13T01:29:14;5.38;;;1.40;;
58685;SDS011;44465;53.206;-6.106;2023-03-13T01:31:40;8.77;;;1.58;;
58685;SDS011;44465;53.206;-6.106;2023-03-13T01:34:06;3.28;;;1.20;;
58685;SDS011;44465;53.206;-6.106;2023-03-13T01:36:33;5.93;;;1.58;;
58685;SDS011;44465;53.206;-6.106;2023-03-13T01:39:00;7.25;;;1.30;;
58685;SDS011;44465;53.206;-6.106;2023-03-13T01:41:27;4.90;;;1.27;;
58685;SDS011;44465;53.206;-6.106;2023-03-13T01:46:21;5.75;;;1.10;;
58685;SDS011;44465;53.206;-6.106;2023-03-13T01:49:06;5.90;;;1.17;;
58685;SDS011;44465;53.206;-6.106;2023-03-13T01:51:48;2.75;;;1.05;;
58685;SDS011;44465;53.206;-6.106;2023-03-13T01:59:37;3.55;;;0.90;;
58685;SDS011;44465;53.206;-6.106;2023-03-13T02:02:06;3.25;;;0.80;;
58685;SDS011;44465;53.206;-6.106;2023-03-13T02:04:40;2.63;;;1.00;;
58685;SDS011;44465;53.206;-6.106;2023-03-13T02:07:13;6.43;;;1.52;;
58685;SDS011;44465;53.206;-6.106;2023-03-13T02:09:42;4.90;;;1.20;;
58685;SDS011;44465;53.206;-6.106;2023-03-13T02:12:14;3.88;;;0.88;;
58685;SDS011;44465;53.206;-6.106;2023-03-13T02:14:44;1.95;;;0.90;;
58685;SDS011;44465;53.206;-6.106;2023-03-13T02:17:12;1.92;;;0.85;;
58685;SDS011;44465;53.206;-6.106;2023-03-13T02:19:45;4.00;;;0.80;;
58685;SDS011;44465;53.206;-6.106;2023-03-13T02:27:15;1.25;;;0.60;;
58685;SDS011;44465;53.206;-6.106;2023-03-13T02:29:42;3.22;;;0.88;;
58685;SDS011;44465;53.206;-6.106;2023-03-13T02:32:08;1.92;;;1.05;;
58685;SDS011;44465;53.206;-6.106;2023-03-13T02:34:34;2.28;;;0.70;;
58685;SDS011;44465;53.206;-6.106;2023-03-13T02:37:04;2.58;;;0.60;;
58685;SDS011;44465;53.206;-6.106;2023-03-13T02:39:36;4.13;;;0.90;;
58685;SDS011;44465;53.206;-6.106;2023-03-13T02:42:06;1.42;;;0.60;;
58685;SDS011;44465;53.206;-6.106;2023-03-13T02:44:39;1.77;;;0.75;;
58685;SDS011;44465;53.206;-6.106;2023-03-13T02:47:06;2.85;;;0.82;;
58685;SDS011;44465;53.206;-6.106;2023-03-13T02:49:34;1.60;;;0.70;;
58685;SDS011;44465;53.206;-6.106;2023-03-13T02:52:17;1.42;;;0.77;;
58685;SDS011;44465;53.206;-6.106;2023-03-13T02:54:49;2.67;;;0.98;;
58685;SDS011;44465;53.206;-6.106;2023-03-13T02:57:19;1.67;;;0.88;;
58685;SDS011;44465;53.206;-6.106;2023-03-13T02:59:45;0.63;;;0.63;;
58685;SDS011;44465;53.206;-6.106;2023-03-13T03:02:10;1.58;;;0.80;;
58685;SDS011;44465;53.206;-6.106;2023-03-13T03:04:36;2.92;;;0.63;;
58685;SDS011;44465;53.206;-6.106;2023-03-13T03:07:01;2.50;;;0.93;;
58685;SDS011;44465;53.206;-6.106;2023-03-13T03:09:27;3.15;;;0.95;;
58685;SDS011;44465;53.206;-6.106;2023-03-13T03:11:57;0.85;;;0.75;;
58685;SDS011;44465;53.206;-6.106;2023-03-13T03:14:26;1.48;;;0.90;;
58685;SDS011;44465;53.206;-6.106;2023-03-13T03:16:52;0.93;;;0.47;;
58685;SDS011;44465;53.206;-6.106;2023-03-13T03:19:17;3.90;;;0.80;;
58685;SDS011;44465;53.206;-6.106;2023-03-13T03:21:43;1.88;;;0.70;;
58685;SDS011;44465;53.206;-6.106;2023-03-13T03:24:08;2.40;;;0.70;;
58685;SDS011;44465;53.206;-6.106;2023-03-13T03:26:35;0.47;;;0.45;;
58685;SDS011;44465;53.206;-6.106;2023-03-13T03:29:04;1.08;;;0.68;;
58685;SDS011;44465;53.206;-6.106;2023-03-13T03:31:29;1.80;;;0.75;;
58685;SDS011;44465;53.206;-6.106;2023-03-13T03:33:55;3.33;;;0.77;;
58685;SDS011;44465;53.206;-6.106;2023-03-13T03:36:22;2.17;;;0.60;;
58685;SDS011;44465;53.206;-6.106;2023-03-13T03:38:49;1.37;;;0.60;;
58685;SDS011;44465;53.206;-6.106;2023-03-13T03:41:17;2.30;;;0.60;;
58685;SDS011;44465;53.206;-6.106;2023-03-13T03:43:43;1.17;;;0.73;;
58685;SDS011;44465;53.206;-6.106;2023-03-13T03:46:13;0.60;;;0.43;;
58685;SDS011;44465;53.206;-6.106;2023-03-13T03:48:40;2.30;;;0.73;;
58685;SDS011;44465;53.206;-6.106;2023-03-13T03:51:07;0.60;;;0.60;;
58685;SDS011;44465;53.206;-6.106;2023-03-13T03:53:37;1.33;;;0.60;;
58685;SDS011;44465;53.206;-6.106;2023-03-13T03:56:03;2.55;;;0.88;;
58685;SDS011;44465;53.206;-6.106;2023-03-13T03:58:29;1.73;;;0.60;;
58685;SDS011;44465;53.206;-6.106;2023-03-13T04:01:10;3.13;;;0.88;;
58685;SDS011;44465;53.206;-6.106;2023-03-13T04:03:36;0.77;;;0.55;;
58685;SDS011;44465;53.206;-6.106;2023-03-13T04:06:01;0.88;;;0.60;;
58685;SDS011;44465;53.206;-6.106;2023-03-13T04:08:27;0.70;;;0.60;;
58685;SDS011;44465;53.206;-6.106;2023-03-13T04:10:53;1.05;;;0.55;;
58685;SDS011;44465;53.206;-6.106;2023-03-13T04:13:21;1.77;;;0.57;;
58685;SDS011;44465;53.206;-6.106;2023-03-13T04:15:47;0.60;;;0.60;;
58685;SDS011;44465;53.206;-6.106;2023-03-13T04:18:14;0.60;;;0.50;;
58685;SDS011;44465;53.206;-6.106;2023-03-13T04:20:41;0.47;;;0.40;;
58685;SDS011;44465;53.206;-6.106;2023-03-13T04:23:06;1.40;;;0.40;;
58685;SDS011;44465;53.206;-6.106;2023-03-13T04:25:32;1.95;;;0.60;;
58685;SDS011;44465;53.206;-6.106;2023-03-13T04:27:59;0.60;;;0.47;;
58685;SDS011;44465;53.206;-6.106;2023-03-13T04:30:30;1.65;;;0.55;;
58685;SDS011;44465;53.206;-6.106;2023-03-13T04:33:10;1.08;;;0.60;;
58685;SDS011;44465;53.206;-6.106;2023-03-13T04:36:00;0.57;;;0.57;;
58685;SDS011;44465;53.206;-6.106;2023-03-13T04:39:03;1.33;;;0.30;;
58685;SDS011;44465;53.206;-6.106;2023-03-13T04:41:53;0.52;;;0.40;;
58685;SDS011;44465;53.206;-6.106;2023-03-13T04:44:43;0.35;;;0.30;;
58685;SDS011;44465;53.206;-6.106;2023-03-13T04:47:19;0.60;;;0.57;;
58685;SDS011;44465;53.206;-6.106;2023-03-13T04:50:14;0.47;;;0.40;;
58685;SDS011;44465;53.206;-6.106;2023-03-13T04:52:45;0.60;;;0.35;;
58685;SDS011;44465;53.206;-6.106;2023-03-13T04:55:30;0.40;;;0.40;;
58685;SDS011;44465;53.206;-6.106;2023-03-13T04:58:14;0.30;;;0.30;;
58685;SDS011;44465;53.206;-6.106;2023-03-13T05:00:52;0.40;;;0.40;;
58685;SDS011;44465;53.206;-6.106;2023-03-13T05:03:40;0.60;;;0.47;;
58685;SDS011;44465;53.206;-6.106;2023-03-13T05:06:13;1.85;;;0.55;;
58685;SDS011;44465;53.206;-6.106;2023-03-13T05:08:57;0.77;;;0.50;;
58685;SDS011;44465;53.206;-6.106;2023-03-13T05:11:48;0.90;;;0.30;;
58685;SDS011;44465;53.206;-6.106;2023-03-13T05:14:34;0.40;;;0.38;;
58685;SDS011;44465;53.206;-6.106;2023-03-13T05:17:11;0.57;;;0.30;;
58685;SDS011;44465;53.206;-6.106;2023-03-13T05:19:59;0.43;;;0.40;;
58685;SDS011;44465;53.206;-6.106;2023-03-13T05:22:38;0.40;;;0.30;;
58685;SDS011;44465;53.206;-6.106;2023-03-13T05:25:16;0.45;;;0.40;;
58685;SDS011;44465;53.206;-6.106;2023-03-13T05:28:00;0.38;;;0.38;;
58685;SDS011;44465;53.206;-6.106;2023-03-13T05:30:45;0.45;;;0.30;;
58685;SDS011;44465;53.206;-6.106;2023-03-13T05:33:29;0.30;;;0.30;;
58685;SDS011;44465;53.206;-6.106;2023-03-13T05:36:24;0.95;;;0.50;;
58685;SDS011;44465;53.206;-6.106;2023-03-13T05:39:15;0.32;;;0.32;;
58685;SDS011;44465;53.206;-6.106;2023-03-13T05:41:47;1.00;;;0.30;;
58685;SDS011;44465;53.206;-6.106;2023-03-13T05:44:35;0.30;;;0.30;;
58685;SDS011;44465;53.206;-6.106;2023-03-13T05:47:18;0.20;;;0.20;;
58685;SDS011;44465;53.206;-6.106;2023-03-13T05:49:52;0.30;;;0.30;;
58685;SDS011;44465;53.206;-6.106;2023-03-13T05:52:36;0.60;;;0.43;;
58685;SDS011;44465;53.206;-6.106;2023-03-13T05:55:24;0.43;;;0.40;;
58685;SDS011;44465;53.206;-6.106;2023-03-13T05:58:09;0.30;;;0.30;;
58685;SDS011;44465;53.206;-6.106;2023-03-13T06:01:09;0.35;;;0.25;;
58685;SDS011;44465;53.206;-6.106;2023-03-13T06:04:01;0.63;;;0.32;;
58685;SDS011;44465;53.206;-6.106;2023-03-13T06:06:28;0.37;;;0.27;;
58685;SDS011;44465;53.206;-6.106;2023-03-13T06:08:55;0.30;;;0.30;;
58685;SDS011;44465;53.206;-6.106;2023-03-13T06:11:23;1.45;;;0.40;;
58685;SDS011;44465;53.206;-6.106;2023-03-13T06:13:52;0.20;;;0.20;;
58685;SDS011;44465;53.206;-6.106;2023-03-13T06:16:26;0.43;;;0.43;;
58685;SDS011;44465;53.206;-6.106;2023-03-13T06:18:55;0.32;;;0.30;;
58685;SDS011;44465;53.206;-6.106;2023-03-13T06:21:21;0.45;;;0.20;;
58685;SDS011;44465;53.206;-6.106;2023-03-13T06:23:47;0.30;;;0.30;;
58685;SDS011;44465;53.206;-6.106;2023-03-13T06:26:12;0.20;;;0.20;;
58685;SDS011;44465;53.206;-6.106;2023-03-13T06:28:38;0.43;;;0.40;;
58685;SDS011;44465;53.206;-6.106;2023-03-13T06:31:04;0.40;;;0.20;;
58685;SDS011;44465;53.206;-6.106;2023-03-13T06:33:31;0.93;;;0.20;;
58685;SDS011;44465;53.206;-6.106;2023-03-13T06:35:58;0.40;;;0.40;;
58685;SDS011;44465;53.206;-6.106;2023-03-13T06:38:25;0.22;;;0.22;;
58685;SDS011;44465;53.206;-6.106;2023-03-13T06:40:51;0.30;;;0.30;;
58685;SDS011;44465;53.206;-6.106;2023-03-13T06:43:16;0.77;;;0.22;;
58685;SDS011;44465;53.206;-6.106;2023-03-13T06:45:42;0.20;;;0.20;;
58685;SDS011;44465;53.206;-6.106;2023-03-13T06:48:08;0.30;;;0.28;;
58685;SDS011;44465;53.206;-6.106;2023-03-13T06:50:36;0.38;;;0.30;;
58685;SDS011;44465;53.206;-6.106;2023-03-13T06:53:02;0.93;;;0.30;;
58685;SDS011;44465;53.206;-6.106;2023-03-13T06:55:28;0.43;;;0.20;;
58685;SDS011;44465;53.206;-6.106;2023-03-13T06:57:53;0.28;;;0.20;;
58685;SDS011;44465;53.206;-6.106;2023-03-13T07:00:19;0.88;;;0.35;;
58685;SDS011;44465;53.206;-6.106;2023-03-13T07:02:45;0.55;;;0.30;;
58685;SDS011;44465;53.206;-6.106;2023-03-13T07:05:11;0.70;;;0.30;;
58685;SDS011;44465;53.206;-6.106;2023-03-13T07:07:39;0.30;;;0.30;;
58685;SDS011;44465;53.206;-6.106;2023-03-13T07:10:06;0.82;;;0.17;;
58685;SDS011;44465;53.206;-6.106;2023-03-13T07:12:33;0.25;;;0.20;;
58685;SDS011;44465;53.206;-6.106;2023-03-13T07:14:59;0.30;;;0.30;;
58685;SDS011;44465;53.206;-6.106;2023-03-13T07:17:24;3.13;;;0.40;;
58685;SDS011;44465;53.206;-6.106;2023-03-13T07:19:50;1.02;;;0.40;;
58685;SDS011;44465;53.206;-6.106;2023-03-13T07:22:15;1.10;;;0.30;;
58685;SDS011;44465;53.206;-6.106;2023-03-13T07:24:41;0.20;;;0.20;;
58685;SDS011;44465;53.206;-6.106;2023-03-13T07:27:06;0.60;;;0.30;;
58685;SDS011;44465;53.206;-6.106;2023-03-13T07:29:32;0.73;;;0.32;;
58685;SDS011;44465;53.206;-6.106;2023-03-13T07:31:57;0.82;;;0.40;;
58685;SDS011;44465;53.206;-6.106;2023-03-13T07:34:23;0.40;;;0.40;;
58685;SDS011;44465;53.206;-6.106;2023-03-13T07:36:48;0.65;;;0.65;;
58685;SDS011;44465;53.206;-6.106;2023-03-13T07:39:14;1.17;;;0.50;;
58685;SDS011;44465;53.206;-6.106;2023-03-13T07:41:39;0.80;;;0.68;;
58685;SDS011;44465;53.206;-6.106;2023-03-13T07:44:05;1.08;;;0.45;;
58685;SDS011;44465;53.206;-6.106;2023-03-13T07:46:30;1.52;;;0.50;;
58685;SDS011;44465;53.206;-6.106;2023-03-13T07:48:56;2.47;;;0.40;;
58685;SDS011;44465;53.206;-6.106;2023-03-13T07:51:23;0.47;;;0.47;;
58685;SDS011;44465;53.206;-6.106;2023-03-13T07:53:50;1.33;;;0.30;;
58685;SDS011;44465;53.206;-6.106;2023-03-13T07:56:17;1.67;;;0.50;;
58685;SDS011;44465;53.206;-6.106;2023-03-13T07:58:44;2.63;;;0.38;;
58685;SDS011;44465;53.206;-6.106;2023-03-13T08:01:10;0.47;;;0.40;;
58685;SDS011;44465;53.206;-6.106;2023-03-13T08:03:40;0.85;;;0.63;;
58685;SDS011;44465;53.206;-6.106;2023-03-13T08:06:10;2.88;;;0.47;;
58685;SDS011;44465;53.206;-6.106;2023-03-13T08:08:37;1.13;;;0.40;;
58685;SDS011;44465;53.206;-6.106;2023-03-13T08:11:22;1.88;;;0.70;;
58685;SDS011;44465;53.206;-6.106;2023-03-13T08:13:49;1.35;;;0.63;;
58685;SDS011;44465;53.206;-6.106;2023-03-13T08:16:16;2.70;;;0.82;;
58685;SDS011;44465;53.206;-6.106;2023-03-13T08:18:47;0.98;;;0.40;;
58685;SDS011;44465;53.206;-6.106;2023-03-13T08:21:18;0.70;;;0.50;;
58685;SDS011;44465;53.206;-6.106;2023-03-13T08:23:45;2.65;;;0.60;;
58685;SDS011;44465;53.206;-6.106;2023-03-13T08:26:13;2.13;;;0.60;;
58685;SDS011;44465;53.206;-6.106;2023-03-13T08:28:43;0.93;;;0.60;;
58685;SDS011;44465;53.206;-6.106;2023-03-13T08:31:13;3.00;;;1.20;;
58685;SDS011;44465;53.206;-6.106;2023-03-13T08:33:41;0.60;;;0.50;;
58685;SDS011;44465;53.206;-6.106;2023-03-13T08:36:12;2.08;;;0.55;;
58685;SDS011;44465;53.206;-6.106;2023-03-13T08:38:52;2.35;;;0.68;;
58685;SDS011;44465;53.206;-6.106;2023-03-13T08:43:45;2.20;;;0.60;;
58685;SDS011;44465;53.206;-6.106;2023-03-13T08:46:12;2.08;;;1.15;;
58685;SDS011;44465;53.206;-6.106;2023-03-13T08:48:38;2.88;;;0.70;;
58685;SDS011;44465;53.206;-6.106;2023-03-13T08:53:29;2.47;;;0.75;;
58685;SDS011;44465;53.206;-6.106;2023-03-13T08:55:55;1.73;;;0.70;;
58685;SDS011;44465;53.206;-6.106;2023-03-13T08:58:21;1.90;;;0.82;;
58685;SDS011;44465;53.206;-6.106;2023-03-13T09:00:47;1.63;;;0.60;;
58685;SDS011;44465;53.206;-6.106;2023-03-13T09:03:12;1.88;;;0.68;;
58685;SDS011;44465;53.206;-6.106;2023-03-13T09:05:38;2.72;;;0.80;;
58685;SDS011;44465;53.206;-6.106;2023-03-13T09:08:04;0.73;;;0.55;;
58685;SDS011;44465;53.206;-6.106;2023-03-13T09:10:33;2.85;;;0.95;;
58685;SDS011;44465;53.206;-6.106;2023-03-13T09:12:59;1.65;;;1.20;;
58685;SDS011;44465;53.206;-6.106;2023-03-13T09:15:25;0.90;;;0.70;;
58685;SDS011;44465;53.206;-6.106;2023-03-13T09:17:50;3.33;;;1.05;;
58685;SDS011;44465;53.206;-6.106;2023-03-13T09:20:16;1.73;;;0.50;;
58685;SDS011;44465;53.206;-6.106;2023-03-13T09:22:43;1.50;;;0.80;;
58685;SDS011;44465;53.206;-6.106;2023-03-13T09:25:09;2.03;;;0.88;;
58685;SDS011;44465;53.206;-6.106;2023-03-13T09:27:35;1.33;;;0.60;;
58685;SDS011;44465;53.206;-6.106;2023-03-13T09:30:00;2.35;;;0.75;;
58685;SDS011;44465;53.206;-6.106;2023-03-13T09:32:26;4.40;;;0.70;;
58685;SDS011;44465;53.206;-6.106;2023-03-13T09:34:52;2.05;;;0.52;;
58685;SDS011;44465;53.206;-6.106;2023-03-13T09:37:17;1.00;;;0.90;;
58685;SDS011;44465;53.206;-6.106;2023-03-13T09:39:43;3.05;;;0.70;;
58685;SDS011;44465;53.206;-6.106;2023-03-13T09:42:15;3.28;;;0.68;;
58685;SDS011;44465;53.206;-6.106;2023-03-13T09:47:41;8.25;;;1.15;;
58685;SDS011;44465;53.206;-6.106;2023-03-13T09:52:37;16.35;;;1.52;;
58685;SDS011;44465;53.206;-6.106;2023-03-13T09:57:38;17.38;;;2.28;;
58685;SDS011;44465;53.206;-6.106;2023-03-13T10:00:11;11.70;;;1.20;;
58685;SDS011;44465;53.206;-6.106;2023-03-13T10:05:21;28.77;;;2.08;;
58685;SDS011;44465;53.206;-6.106;2023-03-13T10:07:49;4.28;;;1.30;;
58685;SDS011;44465;53.206;-6.106;2023-03-13T10:10:38;6.45;;;1.92;;
58685;SDS011;44465;53.206;-6.106;2023-03-13T10:16:04;13.88;;;1.73;;
58685;SDS011;44465;53.206;-6.106;2023-03-13T10:18:34;6.82;;;1.65;;
58685;SDS011;44465;53.206;-6.106;2023-03-13T10:21:24;9.65;;;1.33;;
58685;SDS011;44465;53.206;-6.106;2023-03-13T10:24:06;13.93;;;1.23;;
58685;SDS011;44465;53.206;-6.106;2023-03-13T10:26:38;15.80;;;2.33;;
58685;SDS011;44465;53.206;-6.106;2023-03-13T10:29:23;15.43;;;1.85;;
58685;SDS011;44465;53.206;-6.106;2023-03-13T10:34:23;9.18;;;1.50;;
58685;SDS011;44465;53.206;-6.106;2023-03-13T10:36:57;5.45;;;1.25;;
58685;SDS011;44465;53.206;-6.106;2023-03-13T10:39:28;7.80;;;1.40;;
58685;SDS011;44465;53.206;-6.106;2023-03-13T10:45:00;8.30;;;1.40;;
58685;SDS011;44465;53.206;-6.106;2023-03-13T10:47:33;12.30;;;1.45;;
58685;SDS011;44465;53.206;-6.106;2023-03-13T10:49:59;10.00;;;1.48;;
58685;SDS011;44465;53.206;-6.106;2023-03-13T10:52:27;6.32;;;1.20;;
58685;SDS011;44465;53.206;-6.106;2023-03-13T10:58:43;9.13;;;1.50;;
58685;SDS011;44465;53.206;-6.106;2023-03-13T11:03:45;11.88;;;1.13;;
58685;SDS011;44465;53.206;-6.106;2023-03-13T11:06:45;4.07;;;1.33;;
58685;SDS011;44465;53.206;-6.106;2023-03-13T11:09:11;7.88;;;1.27;;
58685;SDS011;44465;53.206;-6.106;2023-03-13T11:11:43;4.93;;;1.10;;
58685;SDS011;44465;53.206;-6.106;2023-03-13T11:14:18;5.07;;;0.95;;
58685;SDS011;44465;53.206;-6.106;2023-03-13T11:24:49;3.55;;;0.90;;
58685;SDS011;44465;53.206;-6.106;2023-03-13T11:30:08;4.93;;;0.98;;
58685;SDS011;44465;53.206;-6.106;2023-03-13T11:35:33;2.45;;;0.70;;
58685;SDS011;44465;53.206;-6.106;2023-03-13T11:38:33;6.63;;;0.93;;
58685;SDS011;44465;53.206;-6.106;2023-03-13T11:41:04;9.68;;;1.55;;
58685;SDS011;44465;53.206;-6.106;2023-03-13T11:54:10;3.85;;;2.03;;
58685;SDS011;44465;53.206;-6.106;2023-03-13T11:56:57;12.63;;;1.80;;
58685;SDS011;44465;53.206;-6.106;2023-03-13T12:02:44;14.93;;;2.63;;
58685;SDS011;44465;53.206;-6.106;2023-03-13T12:05:18;12.30;;;2.22;;
58685;SDS011;44465;53.206;-6.106;2023-03-13T12:08:01;8.32;;;1.48;;
58685;SDS011;44465;53.206;-6.106;2023-03-13T12:10:38;8.65;;;1.60;;
58685;SDS011;44465;53.206;-6.106;2023-03-13T12:13:26;17.33;;;2.72;;
58685;SDS011;44465;53.206;-6.106;2023-03-13T12:16:01;10.63;;;1.70;;
58685;SDS011;44465;53.206;-6.106;2023-03-13T12:18:34;5.85;;;1.67;;
58685;SDS011;44465;53.206;-6.106;2023-03-13T12:29:31;14.32;;;2.40;;
58685;SDS011;44465;53.206;-6.106;2023-03-13T12:32:13;7.20;;;1.77;;
58685;SDS011;44465;53.206;-6.106;2023-03-13T12:43:33;14.55;;;3.13;;
58685;SDS011;44465;53.206;-6.106;2023-03-13T12:46:18;10.30;;;2.45;;
58685;SDS011;44465;53.206;-6.106;2023-03-13T12:54:26;16.27;;;4.20;;
58685;SDS011;44465;53.206;-6.106;2023-03-13T13:00:13;18.65;;;3.95;;
58685;SDS011;44465;53.206;-6.106;2023-03-13T13:02:45;21.30;;;3.78;;
58685;SDS011;44465;53.206;-6.106;2023-03-13T13:05:18;13.13;;;3.25;;
58685;SDS011;44465;53.206;-6.106;2023-03-13T13:07:53;16.67;;;3.20;;
58685;SDS011;44465;53.206;-6.106;2023-03-13T13:10:21;14.15;;;3.00;;
58685;SDS011;44465;53.206;-6.106;2023-03-13T13:15:41;11.40;;;3.20;;
58685;SDS011;44465;53.206;-6.106;2023-03-13T13:18:22;13.07;;;3.17;;
58685;SDS011;44465;53.206;-6.106;2023-03-13T13:23:39;13.55;;;2.97;;
58685;SDS011;44465;53.206;-6.106;2023-03-13T13:28:52;9.75;;;2.22;;
58685;SDS011;44465;53.206;-6.106;2023-03-13T13:36:55;8.27;;;2.42;;
58685;SDS011;44465;53.206;-6.106;2023-03-13T13:39:31;11.95;;;2.25;;
58685;SDS011;44465;53.206;-6.106;2023-03-13T13:47:44;9.55;;;2.92;;
58685;SDS011;44465;53.206;-6.106;2023-03-13T13:50:23;13.43;;;2.55;;
58685;SDS011;44465;53.206;-6.106;2023-03-13T13:52:52;8.27;;;1.88;;
58685;SDS011;44465;53.206;-6.106;2023-03-13T13:55:44;8.32;;;2.20;;
58685;SDS011;44465;53.206;-6.106;2023-03-13T14:01:13;8.63;;;1.90;;
58685;SDS011;44465;53.206;-6.106;2023-03-13T14:03:40;8.40;;;1.70;;
58685;SDS011;44465;53.206;-6.106;2023-03-13T14:08:56;9.05;;;1.90;;
58685;SDS011;44465;53.206;-6.106;2023-03-13T14:11:37;11.50;;;2.17;;
58685;SDS011;44465;53.206;-6.106;2023-03-13T14:14:14;9.57;;;1.67;;
58685;SDS011;44465;53.206;-6.106;2023-03-13T14:21:47;7.03;;;2.00;;
58685;SDS011;44465;53.206;-6.106;2023-03-13T14:24:13;8.70;;;2.08;;
58685;SDS011;44465;53.206;-6.106;2023-03-13T14:26:43;11.60;;;2.13;;
58685;SDS011;44465;53.206;-6.106;2023-03-13T14:29:16;8.10;;;2.13;;
58685;SDS011;44465;53.206;-6.106;2023-03-13T14:31:57;5.88;;;1.58;;
58685;SDS011;44465;53.206;-6.106;2023-03-13T14:34:24;9.40;;;1.70;;
58685;SDS011;44465;53.206;-6.106;2023-03-13T14:45:11;7.65;;;1.38;;
58685;SDS011;44465;53.206;-6.106;2023-03-13T14:47:37;6.07;;;1.50;;
58685;SDS011;44465;53.206;-6.106;2023-03-13T14:50:03;6.05;;;1.45;;
58685;SDS011;44465;53.206;-6.106;2023-03-13T14:52:35;7.30;;;1.40;;
58685;SDS011;44465;53.206;-6.106;2023-03-13T14:55:24;3.83;;;1.20;;
58685;SDS011;44465;53.206;-6.106;2023-03-13T15:00:43;3.38;;;1.00;;
58685;SDS011;44465;53.206;-6.106;2023-03-13T15:05:45;10.30;;;1.67;;
58685;SDS011;44465;53.206;-6.106;2023-03-13T15:08:15;3.13;;;1.10;;
58685;SDS011;44465;53.206;-6.106;2023-03-13T15:13:54;10.27;;;2.88;;
58685;SDS011;44465;53.206;-6.106;2023-03-13T15:16:20;6.45;;;1.42;;
58685;SDS011;44465;53.206;-6.106;2023-03-13T15:18:47;9.13;;;2.08;;
58685;SDS011;44465;53.206;-6.106;2023-03-13T15:23:53;11.00;;;1.77;;
58685;SDS011;44465;53.206;-6.106;2023-03-13T15:26:18;10.00;;;2.47;;
58685;SDS011;44465;53.206;-6.106;2023-03-13T15:28:44;9.40;;;1.65;;
58685;SDS011;44465;53.206;-6.106;2023-03-13T15:31:13;5.10;;;1.60;;
58685;SDS011;44465;53.206;-6.106;2023-03-13T15:33:39;27.08;;;4.13;;
58685;SDS011;44465;53.206;-6.106;2023-03-13T15:36:08;17.70;;;2.17;;
58685;SDS011;44465;53.206;-6.106;2023-03-13T15:38:34;17.45;;;3.15;;
58685;SDS011;44465;53.206;-6.106;2023-03-13T15:41:00;15.15;;;2.70;;
58685;SDS011;44465;53.206;-6.106;2023-03-13T15:43:26;13.02;;;2.40;;
58685;SDS011;44465;53.206;-6.106;2023-03-13T15:45:51;10.02;;;2.38;;
58685;SDS011;44465;53.206;-6.106;2023-03-13T15:48:25;18.05;;;3.20;;
58685;SDS011;44465;53.206;-6.106;2023-03-13T15:50:53;14.05;;;2.50;;
58685;SDS011;44465;53.206;-6.106;2023-03-13T15:53:28;15.15;;;2.65;;
58685;SDS011;44465;53.206;-6.106;2023-03-13T15:55:56;7.88;;;2.13;;
58685;SDS011;44465;53.206;-6.106;2023-03-13T15:58:24;16.42;;;2.53;;
58685;SDS011;44465;53.206;-6.106;2023-03-13T16:00:51;15.13;;;3.00;;
58685;SDS011;44465;53.206;-6.106;2023-03-13T16:03:21;15.82;;;3.25;;
58685;SDS011;44465;53.206;-6.106;2023-03-13T16:05:51;11.73;;;2.15;;
58685;SDS011;44465;53.206;-6.106;2023-03-13T16:08:19;9.90;;;1.97;;
58685;SDS011;44465;53.206;-6.106;2023-03-13T16:10:46;10.38;;;2.53;;
58685;SDS011;44465;53.206;-6.106;2023-03-13T16:13:12;14.85;;;2.60;;
58685;SDS011;44465;53.206;-6.106;2023-03-13T16:15:40;11.25;;;1.83;;
58685;SDS011;44465;53.206;-6.106;2023-03-13T16:18:08;22.33;;;4.03;;
58685;SDS011;44465;53.206;-6.106;2023-03-13T16:20:40;32.58;;;5.32;;
58685;SDS011;44465;53.206;-6.106;2023-03-13T16:23:05;23.40;;;3.85;;
58685;SDS011;44465;53.206;-6.106;2023-03-13T16:25:31;26.10;;;3.60;;
58685;SDS011;44465;53.206;-6.106;2023-03-13T16:27:57;38.45;;;6.93;;
58685;SDS011;44465;53.206;-6.106;2023-03-13T16:30:43;15.77;;;3.05;;
58685;SDS011;44465;53.206;-6.106;2023-03-13T16:33:10;17.60;;;4.07;;
58685;SDS011;44465;53.206;-6.106;2023-03-13T16:35:35;18.95;;;2.80;;
58685;SDS011;44465;53.206;-6.106;2023-03-13T16:38:01;23.70;;;3.97;;
58685;SDS011;44465;53.206;-6.106;2023-03-13T16:40:31;17.70;;;2.67;;
58685;SDS011;44465;53.206;-6.106;2023-03-13T16:42:57;9.65;;;2.42;;
58685;SDS011;44465;53.206;-6.106;2023-03-13T16:45:23;19.15;;;3.58;;
58685;SDS011;44465;53.206;-6.106;2023-03-13T16:47:49;16.40;;;3.38;;
58685;SDS011;44465;53.206;-6.106;2023-03-13T16:52:47;9.43;;;2.53;;
58685;SDS011;44465;53.206;-6.106;2023-03-13T16:55:13;10.15;;;2.00;;
58685;SDS011;44465;53.206;-6.106;2023-03-13T16:57:39;19.88;;;3.58;;
58685;SDS011;44465;53.206;-6.106;2023-03-13T17:02:55;12.40;;;1.85;;
58685;SDS011;44465;53.206;-6.106;2023-03-13T17:05:22;16.52;;;3.13;;
58685;SDS011;44465;53.206;-6.106;2023-03-13T17:07:49;15.90;;;2.67;;
58685;SDS011;44465;53.206;-6.106;2023-03-13T17:10:20;16.60;;;2.72;;
58685;SDS011;44465;53.206;-6.106;2023-03-13T17:12:51;15.85;;;2.97;;
58685;SDS011;44465;53.206;-6.106;2023-03-13T17:15:17;9.60;;;2.58;;
58685;SDS011;44465;53.206;-6.106;2023-03-13T17:17:44;18.23;;;2.88;;
58685;SDS011;44465;53.206;-6.106;2023-03-13T17:20:16;21.45;;;4.03;;
58685;SDS011;44465;53.206;-6.106;2023-03-13T17:22:45;30.88;;;4.28;;